createdAt,value
2022-11-22T00:00:44.564Z,11.60
2022-11-22T00:03:12.203Z,11.60
2022-11-22T00:05:39.489Z,11.60
2022-11-22T00:08:07.002Z,11.70
2022-11-22T00:10:34.613Z,11.60
2022-11-22T00:13:02.176Z,11.50
2022-11-22T00:15:29.838Z,11.50
2022-11-22T00:17:57.402Z,11.60
2022-11-22T00:20:25.032Z,11.50
2022-11-22T00:22:52.553Z,11.40
2022-11-22T00:25:19.895Z,11.40
2022-11-22T00:27:47.306Z,11.40
2022-11-22T00:30:14.650Z,11.50
2022-11-22T00:32:42.259Z,11.40
2022-11-22T00:35:10.773Z,11.40
2022-11-22T00:37:38.175Z,11.40
2022-11-22T00:40:06.657Z,11.50
2022-11-22T00:42:33.909Z,11.50
2022-11-22T00:45:01.420Z,11.50
2022-11-22T00:47:28.905Z,11.40
2022-11-22T00:49:56.259Z,11.50
2022-11-22T00:52:23.549Z,11.50
2022-11-22T00:54:54.845Z,11.60
2022-11-22T00:57:22.902Z,11.50
2022-11-22T00:59:50.271Z,11.50
2022-11-22T01:02:17.707Z,11.50
2022-11-22T01:04:45.035Z,11.60
2022-11-22T01:07:12.573Z,11.60
2022-11-22T01:09:39.975Z,11.50
2022-11-22T01:12:07.781Z,11.50
2022-11-22T01:14:35.138Z,11.50
2022-11-22T01:17:02.464Z,11.40
2022-11-22T01:19:30.059Z,11.50
2022-11-22T01:21:57.935Z,11.60
2022-11-22T01:24:25.247Z,11.70
2022-11-22T01:26:52.795Z,11.70
2022-11-22T01:29:20.219Z,11.60
2022-11-22T01:31:47.689Z,11.60
2022-11-22T01:34:15.103Z,11.60
2022-11-22T01:36:43.612Z,11.50
2022-11-22T01:39:11.119Z,11.50
2022-11-22T01:41:38.649Z,11.40
2022-11-22T01:44:26.757Z,11.40
2022-11-22T01:47:24.884Z,11.40
2022-11-22T01:49:54.382Z,11.50
2022-11-22T01:52:24.494Z,11.50
2022-11-22T01:54:57.586Z,11.50
2022-11-22T01:57:30.671Z,11.50
2022-11-22T02:00:07.295Z,11.40
2022-11-22T02:02:41.845Z,11.50
2022-11-22T02:05:13.287Z,11.50
2022-11-22T02:07:44.525Z,11.60
2022-11-22T02:10:11.942Z,11.50
2022-11-22T02:12:39.614Z,11.50
2022-11-22T02:15:08.141Z,11.50
2022-11-22T02:17:35.422Z,11.50
2022-11-22T02:20:03.357Z,11.50
2022-11-22T02:22:43.950Z,11.40
2022-11-22T02:25:23.243Z,11.40
2022-11-22T02:27:51.026Z,11.40
2022-11-22T02:30:18.773Z,11.30
2022-11-22T02:32:46.181Z,11.30
2022-11-22T02:35:33.947Z,11.20
2022-11-22T02:38:22.749Z,11.10
2022-11-22T02:40:53.028Z,11.20
2022-11-22T02:43:42.443Z,11.10
2022-11-22T02:46:12.212Z,11.20
2022-11-22T02:48:45.429Z,11.20
2022-11-22T02:51:16.960Z,11.20
2022-11-22T02:53:46.031Z,11.20
2022-11-22T02:56:13.814Z,11.20
2022-11-22T02:58:41.475Z,10.80
2022-11-22T03:01:09.038Z,10.60
2022-11-22T03:03:36.609Z,10.60
2022-11-22T03:06:04.114Z,10.40
2022-11-22T03:08:31.516Z,10.30
2022-11-22T03:11:01.711Z,10.40
2022-11-22T03:13:29.281Z,10.30
2022-11-22T03:15:56.792Z,10.10
2022-11-22T03:18:26.051Z,10.10
2022-11-22T03:20:53.367Z,10.10
2022-11-22T03:23:20.651Z,10.20
2022-11-22T03:25:48.078Z,10.20
2022-11-22T03:28:15.382Z,10.30
2022-11-22T03:30:42.939Z,10.20
2022-11-22T03:33:10.656Z,10.20
2022-11-22T03:35:38.213Z,10.30
2022-11-22T03:38:06.219Z,10.40
2022-11-22T03:40:34.175Z,10.40
2022-11-22T03:43:02.558Z,10.50
2022-11-22T03:45:30.596Z,10.40
2022-11-22T03:47:58.047Z,10.40
2022-11-22T03:50:25.861Z,10.40
2022-11-22T03:52:53.349Z,10.60
2022-11-22T03:55:20.915Z,10.50
2022-11-22T03:57:48.316Z,10.60
2022-11-22T04:00:15.832Z,10.70
2022-11-22T04:02:44.381Z,10.60
2022-11-22T04:05:11.734Z,10.60
2022-11-22T04:07:39.366Z,10.70
2022-11-22T04:10:07.441Z,10.60
2022-11-22T04:12:35.673Z,10.60
2022-11-22T04:15:06.622Z,10.60
2022-11-22T04:17:47.971Z,10.60
2022-11-22T04:20:40.101Z,10.60
2022-11-22T04:23:09.759Z,10.60
2022-11-22T04:25:42.734Z,10.60
2022-11-22T04:28:11.804Z,10.60
2022-11-22T04:30:58.358Z,10.70
2022-11-22T04:33:25.940Z,10.60
2022-11-22T04:35:53.637Z,10.60
2022-11-22T04:38:21.635Z,10.70
2022-11-22T04:40:49.190Z,10.70
2022-11-22T04:43:39.056Z,10.60
2022-11-22T04:46:06.388Z,10.70
2022-11-22T04:48:33.974Z,10.80
2022-11-22T04:51:20.356Z,10.60
2022-11-22T04:53:47.793Z,10.70
2022-11-22T04:56:15.358Z,10.60
2022-11-22T04:58:42.764Z,10.70
2022-11-22T05:01:10.930Z,10.70
2022-11-22T05:03:38.406Z,10.70
2022-11-22T05:06:05.960Z,10.80
2022-11-22T05:08:33.539Z,10.80
2022-11-22T05:11:00.899Z,10.80
2022-11-22T05:13:31.382Z,11.00
2022-11-22T05:15:59.718Z,10.90
2022-11-22T05:18:27.972Z,10.90
2022-11-22T05:20:56.083Z,10.90
2022-11-22T05:23:42.699Z,11.00
2022-11-22T05:26:11.166Z,10.90
2022-11-22T05:28:39.360Z,10.80
2022-11-22T05:31:08.715Z,10.80
2022-11-22T05:33:40.922Z,11.00
2022-11-22T05:36:09.005Z,11.10
2022-11-22T05:38:37.826Z,11.00
2022-11-22T05:41:07.322Z,11.00
2022-11-22T05:43:35.380Z,11.10
2022-11-22T05:46:15.530Z,11.20
2022-11-22T05:48:46.895Z,11.20
2022-11-22T05:51:16.683Z,11.20
2022-11-22T05:53:45.290Z,11.20
2022-11-22T05:56:16.728Z,11.30
2022-11-22T05:58:44.410Z,11.30
2022-11-22T06:01:17.916Z,11.30
2022-11-22T06:03:45.661Z,11.30
2022-11-22T06:06:13.405Z,11.30
2022-11-22T06:08:43.322Z,11.40
2022-11-22T06:11:24.135Z,11.40
2022-11-22T06:13:57.455Z,11.40
2022-11-22T06:16:25.255Z,11.50
2022-11-22T06:18:53.597Z,11.40
2022-11-22T06:21:25.539Z,11.30
2022-11-22T06:23:56.047Z,11.30
2022-11-22T06:26:24.748Z,11.30
2022-11-22T06:28:52.683Z,11.40
2022-11-22T06:31:25.022Z,11.50
2022-11-22T06:33:57.428Z,11.50
2022-11-22T06:36:27.027Z,11.40
2022-11-22T06:38:54.733Z,11.40
2022-11-22T06:41:24.877Z,11.40
2022-11-22T06:43:53.911Z,11.30
2022-11-22T06:46:23.287Z,11.40
2022-11-22T06:48:51.167Z,11.40
2022-11-22T06:51:27.149Z,11.40
2022-11-22T06:53:55.529Z,11.40
2022-11-22T06:56:31.295Z,11.40
2022-11-22T06:59:02.846Z,11.30
2022-11-22T07:01:31.357Z,11.30
2022-11-22T07:03:59.532Z,11.40
2022-11-22T07:06:35.232Z,11.50
2022-11-22T07:09:05.724Z,11.50
2022-11-22T07:11:34.671Z,11.60
2022-11-22T07:14:08.272Z,11.60
2022-11-22T07:16:37.918Z,11.60
2022-11-22T07:19:06.089Z,11.60
2022-11-22T07:21:34.626Z,11.50
2022-11-22T07:24:03.963Z,11.50
2022-11-22T07:26:31.265Z,11.60
2022-11-22T07:28:58.699Z,11.50
2022-11-22T07:31:26.280Z,11.50
2022-11-22T07:33:55.261Z,11.50
2022-11-22T07:36:23.252Z,11.50
2022-11-22T07:38:51.373Z,11.50
2022-11-22T07:41:19.671Z,11.50
2022-11-22T07:43:47.306Z,11.50
2022-11-22T07:46:26.225Z,11.50
2022-11-22T07:48:53.745Z,11.40
2022-11-22T07:51:21.178Z,11.50
2022-11-22T07:53:48.486Z,11.50
2022-11-22T07:56:16.509Z,11.50
2022-11-22T07:58:44.123Z,11.50
2022-11-22T08:01:17.047Z,11.50
2022-11-22T08:03:45.694Z,11.50
2022-11-22T08:06:13.972Z,11.50
2022-11-22T08:08:41.797Z,11.60
2022-11-22T08:11:09.912Z,11.60
2022-11-22T08:13:37.745Z,11.60
2022-11-22T08:16:08.337Z,11.50
2022-11-22T08:18:36.918Z,11.50
2022-11-22T08:21:10.424Z,11.50
2022-11-22T08:23:38.754Z,11.60
2022-11-22T08:26:08.053Z,11.60
2022-11-22T08:28:36.096Z,11.50
2022-11-22T08:31:06.046Z,11.60
2022-11-22T08:33:33.429Z,11.60
2022-11-22T08:36:01.221Z,11.60
2022-11-22T08:38:28.721Z,11.60
2022-11-22T08:40:56.387Z,11.70
2022-11-22T08:43:23.987Z,11.70
2022-11-22T08:45:57.069Z,11.70
2022-11-22T08:48:25.690Z,11.70
2022-11-22T08:50:58.248Z,11.50
2022-11-22T08:53:26.364Z,11.60
2022-11-22T08:55:54.941Z,11.70
2022-11-22T08:58:22.905Z,11.60
2022-11-22T09:00:50.203Z,11.70
2022-11-22T09:03:17.520Z,11.70
2022-11-22T09:08:36.154Z,11.60
2022-11-22T09:11:09.774Z,11.60
2022-11-22T09:13:37.086Z,11.70
2022-11-22T09:16:11.905Z,11.80
2022-11-22T09:18:39.398Z,11.80
2022-11-22T09:21:09.894Z,11.70
2022-11-22T09:23:37.818Z,11.70
2022-11-22T09:26:07.719Z,11.70
2022-11-22T09:28:35.805Z,11.70
2022-11-22T09:31:04.447Z,11.70
2022-11-22T09:33:33.455Z,11.70
2022-11-22T09:36:18.118Z,11.70
2022-11-22T09:38:45.859Z,11.70
2022-11-22T09:41:16.034Z,11.70
2022-11-22T09:43:55.373Z,11.70
2022-11-22T09:46:40.694Z,11.60
2022-11-22T09:49:27.549Z,11.60
2022-11-22T09:52:20.318Z,11.70
2022-11-22T09:55:33.410Z,11.60
2022-11-22T09:58:28.747Z,11.60
2022-11-22T10:01:08.312Z,11.70
2022-11-22T10:03:45.865Z,11.70
2022-11-22T10:06:39.194Z,11.60
2022-11-22T10:09:15.361Z,11.60
2022-11-22T10:11:57.180Z,11.60
2022-11-22T10:14:53.739Z,11.60
2022-11-22T10:17:28.406Z,11.60
2022-11-22T10:20:19.880Z,11.50
2022-11-22T10:22:48.858Z,11.50
2022-11-22T10:25:30.799Z,11.50
2022-11-22T10:28:06.107Z,11.50
2022-11-22T10:30:40.653Z,11.50
2022-11-22T10:33:20.033Z,11.50
2022-11-22T10:36:11.996Z,11.40
2022-11-22T10:38:58.269Z,11.40
2022-11-22T10:41:59.678Z,11.40
2022-11-22T10:44:32.564Z,11.40
2022-11-22T10:47:17.016Z,11.40
2022-11-22T10:50:14.319Z,11.30
2022-11-22T10:53:06.155Z,11.30
2022-11-22T10:56:00.368Z,11.20
2022-11-22T10:58:42.973Z,11.20
2022-11-22T11:01:36.249Z,11.30
2022-11-22T11:04:05.580Z,11.30
2022-11-22T11:07:10.409Z,11.30
2022-11-22T11:13:01.306Z,11.30
2022-11-22T11:15:51.359Z,11.40
2022-11-22T11:18:31.110Z,11.50
2022-11-22T11:20:59.002Z,11.40
2022-11-22T11:23:26.338Z,11.50
2022-11-22T11:25:53.883Z,11.40
2022-11-22T11:28:27.671Z,11.40
2022-11-22T11:31:08.296Z,11.40
2022-11-22T11:33:38.498Z,11.40
2022-11-22T11:36:22.009Z,11.40
2022-11-22T11:38:53.296Z,11.40
2022-11-22T11:41:28.618Z,11.40
2022-11-22T11:43:58.629Z,11.50
2022-11-22T11:46:39.310Z,11.50
2022-11-22T11:49:13.733Z,11.50
2022-11-22T11:51:46.934Z,11.50
2022-11-22T11:54:15.634Z,11.50
2022-11-22T11:57:05.278Z,11.50
2022-11-22T11:59:32.915Z,11.50
2022-11-22T12:02:26.577Z,11.40
2022-11-22T12:05:04.872Z,11.50
2022-11-22T12:07:35.074Z,11.40
2022-11-22T12:10:23.514Z,11.30
2022-11-22T12:12:54.835Z,11.40
2022-11-22T12:15:36.499Z,11.40
2022-11-22T12:18:27.712Z,11.40
2022-11-22T12:21:18.488Z,11.30
2022-11-22T12:24:26.442Z,11.40
2022-11-22T12:26:48.576Z,11.40
2022-11-22T12:29:16.685Z,11.40
2022-11-22T12:32:00.470Z,11.40
2022-11-22T12:34:41.168Z,11.40
2022-11-22T12:37:19.531Z,11.40
2022-11-22T12:39:51.614Z,11.30
2022-11-22T12:42:27.199Z,11.30
2022-11-22T12:45:01.769Z,11.30
2022-11-22T12:47:35.427Z,11.30
2022-11-22T12:50:23.103Z,11.30
2022-11-22T12:53:05.013Z,11.30
2022-11-22T12:55:45.000Z,11.30
2022-11-22T12:58:12.327Z,11.30
2022-11-22T13:00:47.597Z,11.30
2022-11-22T13:03:30.259Z,11.40
2022-11-22T13:06:00.444Z,11.40
2022-11-22T13:08:51.627Z,11.30
2022-11-22T13:11:29.803Z,11.30
2022-11-22T13:14:05.478Z,11.30
2022-11-22T13:16:34.144Z,11.30
2022-11-22T13:19:04.680Z,11.30
2022-11-22T13:21:50.105Z,11.30
2022-11-22T13:24:43.039Z,11.30
2022-11-22T13:27:20.507Z,11.30
2022-11-22T13:29:52.534Z,11.30
2022-11-22T13:32:23.719Z,11.30
2022-11-22T13:35:18.522Z,11.30
2022-11-22T13:37:49.563Z,11.20
2022-11-22T13:40:16.877Z,11.20
2022-11-22T13:42:44.180Z,11.20
2022-11-22T13:45:14.464Z,11.10
2022-11-22T13:47:43.331Z,11.20
2022-11-22T13:50:41.615Z,11.20
2022-11-22T13:53:31.669Z,11.20
2022-11-22T13:56:30.519Z,11.20
2022-11-22T13:59:19.058Z,11.20
2022-11-22T14:01:46.472Z,11.10
2022-11-22T14:04:19.726Z,11.20
2022-11-22T14:06:54.092Z,11.10
2022-11-22T14:09:45.546Z,11.10
2022-11-22T14:12:24.811Z,11.10
2022-11-22T14:15:25.084Z,11.10
2022-11-22T14:18:00.484Z,11.10
2022-11-22T14:20:54.199Z,11.10
2022-11-22T14:23:27.595Z,11.10
2022-11-22T14:25:57.812Z,11.00
2022-11-22T14:29:04.128Z,11.00
2022-11-22T14:31:34.235Z,11.10
2022-11-22T14:34:33.984Z,11.10
2022-11-22T14:37:33.852Z,11.10
2022-11-22T14:40:02.431Z,11.10
2022-11-22T14:42:43.601Z,11.10
2022-11-22T14:45:10.928Z,11.10
2022-11-22T14:47:52.931Z,11.10
2022-11-22T14:50:38.059Z,11.10
2022-11-22T14:53:27.943Z,11.10
2022-11-22T14:56:12.428Z,11.10
2022-11-22T14:58:51.007Z,11.10
2022-11-22T15:01:58.524Z,11.10
2022-11-22T15:09:14.557Z,11.10
2022-11-22T15:09:14.917Z,11.00
2022-11-22T15:11:22.770Z,11.00
2022-11-22T15:14:02.342Z,11.10
2022-11-22T15:59:43.875Z,11.00
2022-11-22T16:02:21.850Z,11.00
2022-11-22T16:06:07.338Z,11.00
2022-11-22T16:07:57.930Z,11.00
2022-11-22T16:10:39.750Z,11.00
2022-11-22T16:13:19.025Z,10.90
2022-11-22T16:16:11.997Z,10.90
2022-11-22T16:18:40.797Z,10.80
2022-11-22T16:21:13.821Z,10.80
2022-11-22T16:23:42.407Z,10.80
2022-11-22T16:26:19.203Z,10.80
2022-11-22T16:28:48.178Z,10.80
2022-11-22T16:31:25.895Z,10.70
2022-11-22T16:33:55.077Z,10.70
2022-11-22T16:36:25.363Z,10.80
2022-11-22T16:38:52.678Z,10.80
2022-11-22T16:41:20.077Z,10.80
2022-11-22T16:43:50.830Z,10.80
2022-11-22T16:46:18.361Z,10.70
2022-11-22T16:48:46.101Z,10.80
2022-11-22T16:51:22.962Z,10.70
2022-11-22T16:53:51.635Z,10.70
2022-11-22T16:56:24.616Z,10.80
2022-11-22T16:58:54.318Z,10.80
2022-11-22T17:01:25.360Z,10.80
2022-11-22T17:03:55.908Z,10.80
2022-11-22T17:06:25.994Z,10.80
2022-11-22T17:08:58.084Z,10.80
2022-11-22T17:11:29.406Z,10.80
2022-11-22T17:13:57.757Z,10.80
2022-11-22T17:16:25.075Z,10.80
2022-11-22T17:18:53.262Z,10.80
2022-11-22T17:21:37.444Z,10.90
2022-11-22T17:24:13.154Z,10.80
2022-11-22T17:26:40.494Z,10.80
2022-11-22T17:29:11.145Z,10.80
2022-11-22T17:31:48.707Z,10.80
2022-11-22T17:34:16.062Z,10.80
2022-11-22T17:36:43.428Z,10.80
2022-11-22T17:39:12.890Z,10.80
2022-11-22T17:41:41.430Z,10.80
2022-11-22T17:44:16.144Z,10.80
2022-11-22T17:46:44.278Z,10.90
2022-11-22T17:49:15.761Z,10.90
2022-11-22T17:51:46.324Z,10.90
2022-11-22T17:54:14.600Z,10.90
2022-11-22T17:56:41.907Z,10.90
2022-11-22T17:59:09.229Z,11.00
2022-11-22T18:01:36.931Z,10.90
2022-11-22T18:04:04.455Z,11.00
2022-11-22T18:06:32.217Z,10.90
2022-11-22T18:09:00.868Z,10.90
2022-11-22T18:11:28.217Z,10.90
2022-11-22T18:13:55.476Z,10.90
2022-11-22T18:16:28.362Z,10.90
2022-11-22T18:18:57.831Z,10.90
2022-11-22T18:21:32.428Z,10.90
2022-11-22T18:24:00.911Z,10.90
2022-11-22T18:26:44.003Z,10.90
2022-11-22T18:32:01.322Z,11.00
2022-11-22T18:34:29.432Z,10.90
2022-11-22T18:37:04.979Z,10.90
2022-11-22T18:39:36.265Z,11.00
2022-11-22T18:42:11.877Z,11.00
2022-11-22T18:44:39.296Z,11.00
2022-11-22T18:47:07.059Z,11.00
2022-11-22T18:49:34.748Z,10.90
2022-11-22T18:52:02.498Z,10.90
2022-11-22T18:54:30.178Z,10.90
2022-11-22T18:56:57.866Z,10.90
2022-11-22T18:59:25.284Z,10.90
2022-11-22T19:01:52.816Z,10.90
2022-11-22T19:04:20.286Z,10.90
2022-11-22T19:06:47.708Z,11.00
2022-11-22T19:09:15.114Z,11.00
2022-11-22T19:11:42.552Z,10.80
2022-11-22T19:14:09.949Z,10.90
2022-11-22T19:16:37.330Z,10.90
2022-11-22T19:19:04.748Z,10.90
2022-11-22T19:21:32.172Z,10.90
2022-11-22T19:23:59.467Z,10.90
2022-11-22T19:26:28.098Z,10.90
2022-11-22T19:28:56.601Z,11.00
2022-11-22T19:31:27.971Z,11.00
2022-11-22T19:33:55.533Z,11.00
2022-11-22T19:36:32.160Z,11.00
2022-11-22T19:39:00.698Z,10.80
2022-11-22T19:41:28.051Z,10.80
2022-11-22T19:43:56.575Z,10.80
2022-11-22T19:46:24.682Z,10.90
2022-11-22T19:48:53.600Z,10.90
2022-11-22T19:51:21.935Z,10.90
2022-11-22T19:53:53.389Z,10.90
2022-11-22T19:56:20.928Z,11.00
2022-11-22T19:58:55.698Z,11.10
2022-11-22T20:01:25.002Z,11.00
2022-11-22T20:03:58.042Z,11.00
2022-11-22T20:06:26.398Z,11.00
2022-11-22T20:08:59.336Z,11.00
2022-11-22T20:11:26.703Z,11.00
2022-11-22T20:13:54.041Z,10.90
2022-11-22T20:16:25.631Z,10.90
2022-11-22T20:18:53.842Z,10.90
2022-11-22T20:21:22.490Z,11.00
2022-11-22T20:23:51.113Z,11.00
2022-11-22T20:26:19.956Z,11.00
2022-11-22T20:28:48.271Z,10.90
2022-11-22T20:31:18.574Z,10.90
2022-11-22T20:33:47.896Z,10.90
2022-11-22T20:36:18.182Z,11.00
2022-11-22T20:38:46.731Z,11.00
2022-11-22T20:41:15.851Z,10.90
2022-11-22T20:43:43.783Z,11.00
2022-11-22T20:46:14.051Z,10.90
2022-11-22T20:48:43.586Z,10.90
2022-11-22T20:51:14.544Z,11.00
2022-11-22T20:53:43.039Z,11.00
2022-11-22T20:56:12.402Z,11.00
2022-11-22T20:58:40.536Z,11.00
2022-11-22T21:01:11.629Z,11.10
2022-11-22T21:03:39.029Z,11.00
2022-11-22T21:06:06.904Z,11.00
2022-11-22T21:08:34.358Z,11.10
2022-11-22T21:11:20.331Z,11.10
2022-11-22T21:13:48.431Z,11.10
2022-11-22T21:16:33.937Z,11.10
2022-11-22T21:19:05.131Z,11.20
2022-11-22T21:21:35.677Z,11.20
2022-11-22T21:24:05.326Z,11.20
2022-11-22T21:26:34.010Z,11.20
2022-11-22T21:29:03.268Z,11.10
2022-11-22T21:31:31.232Z,11.10
2022-11-22T21:33:58.587Z,11.10
2022-11-22T21:36:25.907Z,11.10
2022-11-22T21:38:53.270Z,11.10
2022-11-22T21:44:10.571Z,11.00
2022-11-22T21:46:38.096Z,11.00
2022-11-22T21:49:05.577Z,11.00
2022-11-22T21:51:32.901Z,11.00
2022-11-22T21:54:01.775Z,11.00
2022-11-22T21:56:29.567Z,11.00
2022-11-22T21:58:57.199Z,11.00
2022-11-22T22:01:25.403Z,11.00
2022-11-22T22:03:52.835Z,10.90
2022-11-22T22:06:20.483Z,10.90
2022-11-22T22:08:48.181Z,10.90
2022-11-22T22:11:15.663Z,10.90
2022-11-22T22:13:43.133Z,10.90
2022-11-22T22:16:15.875Z,10.90
2022-11-22T22:18:43.713Z,10.90
2022-11-22T22:21:12.661Z,10.90
2022-11-22T22:23:41.269Z,10.80
2022-11-22T22:26:11.285Z,10.90
2022-11-22T22:28:39.546Z,10.90
2022-11-22T22:31:09.596Z,10.90
2022-11-22T22:33:38.851Z,10.90
2022-11-22T22:36:07.091Z,10.90
2022-11-22T22:38:35.052Z,10.90
2022-11-22T22:41:04.552Z,11.00
2022-11-22T22:43:34.283Z,10.90
2022-11-22T22:46:06.804Z,10.90
2022-11-22T22:48:34.628Z,10.90
2022-11-22T22:51:15.983Z,10.80
2022-11-22T22:53:44.150Z,10.90
2022-11-22T22:56:12.859Z,10.90
2022-11-22T22:58:40.758Z,10.90
2022-11-22T23:01:15.081Z,10.90
2022-11-22T23:03:42.452Z,10.80
2022-11-22T23:06:11.995Z,10.90
2022-11-22T23:08:39.708Z,10.90
2022-11-22T23:11:10.070Z,10.90
2022-11-22T23:13:39.789Z,10.90
2022-11-22T23:16:09.731Z,10.90
2022-11-22T23:18:42.533Z,10.90
2022-11-22T23:21:13.400Z,10.90
2022-11-22T23:23:40.731Z,10.90
2022-11-22T23:26:10.876Z,10.90
2022-11-22T23:28:38.557Z,10.90
2022-11-22T23:31:07.214Z,10.90
2022-11-22T23:33:34.980Z,10.90
2022-11-22T23:36:07.499Z,10.70
2022-11-22T23:38:35.232Z,10.80
2022-11-22T23:41:03.098Z,10.80
2022-11-22T23:43:30.758Z,10.80
2022-11-22T23:45:58.741Z,10.80
2022-11-22T23:48:27.158Z,10.80
2022-11-22T23:50:54.844Z,10.80
2022-11-22T23:53:22.179Z,10.80
2022-11-22T23:55:49.546Z,10.80
2022-11-22T23:58:16.882Z,10.70
